sensor_id;sensor_type;location;lat;lon;timestamp;temperature;humidity
70074;DHT22;57445;51.058;3.698;2023-03-01T00:01:36;2.70;85.70
70074;DHT22;57445;51.058;3.698;2023-03-01T00:04:08;2.60;85.90
70074;DHT22;57445;51.058;3.698;2023-03-01T00:06:35;2.70;86.40
70074;DHT22;57445;51.058;3.698;2023-03-01T00:09:09;2.60;86.30
70074;DHT22;57445;51.058;3.698;2023-03-01T00:11:36;2.70;86.40
70074;DHT22;57445;51.058;3.698;2023-03-01T00:14:04;2.70;86.30
70074;DHT22;57445;51.058;3.698;2023-03-01T00:16:38;2.70;86.50
70074;DHT22;57445;51.058;3.698;2023-03-01T00:19:06;2.70;87.30
70074;DHT22;57445;51.058;3.698;2023-03-01T00:21:38;2.60;87.70
70074;DHT22;57445;51.058;3.698;2023-03-01T00:24:06;2.60;88.40
70074;DHT22;57445;51.058;3.698;2023-03-01T00:26:35;2.60;88.50
70074;DHT22;57445;51.058;3.698;2023-03-01T00:29:03;2.60;89.00
70074;DHT22;57445;51.058;3.698;2023-03-01T00:31:31;2.50;90.00
70074;DHT22;57445;51.058;3.698;2023-03-01T00:34:00;2.60;90.20
70074;DHT22;57445;51.058;3.698;2023-03-01T00:36:29;2.70;90.10
70074;DHT22;57445;51.058;3.698;2023-03-01T00:39:01;3.10;90.00
70074;DHT22;57445;51.058;3.698;2023-03-01T00:41:36;3.00;89.60
70074;DHT22;57445;51.058;3.698;2023-03-01T00:44:08;3.10;88.90
70074;DHT22;57445;51.058;3.698;2023-03-01T00:46:40;3.00;89.60
70074;DHT22;57445;51.058;3.698;2023-03-01T00:49:12;2.90;89.90
70074;DHT22;57445;51.058;3.698;2023-03-01T00:51:44;2.60;90.50
70074;DHT22;57445;51.058;3.698;2023-03-01T00:54:12;2.70;90.80
70074;DHT22;57445;51.058;3.698;2023-03-01T00:56:45;2.60;90.90
70074;DHT22;57445;51.058;3.698;2023-03-01T00:59:17;2.60;91.10
70074;DHT22;57445;51.058;3.698;2023-03-01T01:01:49;2.60;91.30
70074;DHT22;57445;51.058;3.698;2023-03-01T01:04:16;2.50;91.50
70074;DHT22;57445;51.058;3.698;2023-03-01T01:06:44;2.50;91.90
70074;DHT22;57445;51.058;3.698;2023-03-01T01:09:13;2.50;91.90
70074;DHT22;57445;51.058;3.698;2023-03-01T01:11:44;2.50;91.90
70074;DHT22;57445;51.058;3.698;2023-03-01T01:14:12;2.50;92.10
70074;DHT22;57445;51.058;3.698;2023-03-01T01:16:44;2.40;92.50
70074;DHT22;57445;51.058;3.698;2023-03-01T01:19:12;2.30;93.00
70074;DHT22;57445;51.058;3.698;2023-03-01T01:21:44;2.20;93.40
70074;DHT22;57445;51.058;3.698;2023-03-01T01:24:17;2.20;94.00
70074;DHT22;57445;51.058;3.698;2023-03-01T01:26:46;2.10;94.60
70074;DHT22;57445;51.058;3.698;2023-03-01T01:29:14;2.20;95.00
70074;DHT22;57445;51.058;3.698;2023-03-01T01:31:43;2.10;95.40
70074;DHT22;57445;51.058;3.698;2023-03-01T01:34:13;2.10;96.00
70074;DHT22;57445;51.058;3.698;2023-03-01T01:36:40;2.10;96.40
70074;DHT22;57445;51.058;3.698;2023-03-01T01:39:12;2.10;96.80
70074;DHT22;57445;51.058;3.698;2023-03-01T01:41:44;2.10;97.00
70074;DHT22;57445;51.058;3.698;2023-03-01T01:44:14;2.10;97.40
70074;DHT22;57445;51.058;3.698;2023-03-01T01:46:43;2.20;97.30
70074;DHT22;57445;51.058;3.698;2023-03-01T01:49:17;2.50;96.80
70074;DHT22;57445;51.058;3.698;2023-03-01T01:51:47;2.60;96.40
70074;DHT22;57445;51.058;3.698;2023-03-01T01:54:21;2.80;95.90
70074;DHT22;57445;51.058;3.698;2023-03-01T01:56:56;3.00;95.20
70074;DHT22;57445;51.058;3.698;2023-03-01T01:59:31;2.90;95.20
70074;DHT22;57445;51.058;3.698;2023-03-01T02:02:04;3.10;95.10
70074;DHT22;57445;51.058;3.698;2023-03-01T02:04:32;3.00;94.80
70074;DHT22;57445;51.058;3.698;2023-03-01T02:07:01;3.00;94.90
70074;DHT22;57445;51.058;3.698;2023-03-01T02:09:33;3.10;94.40
70074;DHT22;57445;51.058;3.698;2023-03-01T02:12:01;2.90;94.50
70074;DHT22;57445;51.058;3.698;2023-03-01T02:14:36;2.60;95.80
70074;DHT22;57445;51.058;3.698;2023-03-01T02:17:03;2.60;97.30
70074;DHT22;57445;51.058;3.698;2023-03-01T02:19:34;2.20;97.90
70074;DHT22;57445;51.058;3.698;2023-03-01T02:22:07;2.10;98.50
70074;DHT22;57445;51.058;3.698;2023-03-01T02:24:45;2.00;98.70
70074;DHT22;57445;51.058;3.698;2023-03-01T02:27:21;2.20;98.40
70074;DHT22;57445;51.058;3.698;2023-03-01T02:29:52;2.30;97.60
70074;DHT22;57445;51.058;3.698;2023-03-01T02:32:24;2.30;97.30
70074;DHT22;57445;51.058;3.698;2023-03-01T02:34:51;2.30;97.50
70074;DHT22;57445;51.058;3.698;2023-03-01T02:37:23;2.20;97.70
70074;DHT22;57445;51.058;3.698;2023-03-01T02:39:58;2.10;98.20
70074;DHT22;57445;51.058;3.698;2023-03-01T02:42:26;2.00;98.80
70074;DHT22;57445;51.058;3.698;2023-03-01T02:44:57;1.90;99.30
70074;DHT22;57445;51.058;3.698;2023-03-01T02:47:24;1.90;99.90
70074;DHT22;57445;51.058;3.698;2023-03-01T02:49:52;1.90;99.80
70074;DHT22;57445;51.058;3.698;2023-03-01T02:52:22;1.90;99.80
70074;DHT22;57445;51.058;3.698;2023-03-01T02:54:56;1.90;99.90
70074;DHT22;57445;51.058;3.698;2023-03-01T02:57:25;1.90;99.90
70074;DHT22;57445;51.058;3.698;2023-03-01T03:00:02;2.00;99.90
70074;DHT22;57445;51.058;3.698;2023-03-01T03:02:37;2.00;99.90
70074;DHT22;57445;51.058;3.698;2023-03-01T03:05:06;2.00;99.90
70074;DHT22;57445;51.058;3.698;2023-03-01T03:07:39;1.80;99.90
70074;DHT22;57445;51.058;3.698;2023-03-01T03:10:13;1.80;99.90
70074;DHT22;57445;51.058;3.698;2023-03-01T03:12:41;1.80;99.90
70074;DHT22;57445;51.058;3.698;2023-03-01T03:15:14;1.80;99.90
70074;DHT22;57445;51.058;3.698;2023-03-01T03:17:42;1.70;99.90
70074;DHT22;57445;51.058;3.698;2023-03-01T03:20:14;1.70;99.90
70074;DHT22;57445;51.058;3.698;2023-03-01T03:22:50;1.70;99.90
70074;DHT22;57445;51.058;3.698;2023-03-01T03:25:22;1.90;99.90
70074;DHT22;57445;51.058;3.698;2023-03-01T03:27:50;1.80;99.90
70074;DHT22;57445;51.058;3.698;2023-03-01T03:30:24;1.70;99.90
70074;DHT22;57445;51.058;3.698;2023-03-01T03:32:52;1.70;99.90
70074;DHT22;57445;51.058;3.698;2023-03-01T03:35:25;1.60;99.90
70074;DHT22;57445;51.058;3.698;2023-03-01T03:37:54;1.60;99.90
70074;DHT22;57445;51.058;3.698;2023-03-01T03:40:33;1.60;99.90
70074;DHT22;57445;51.058;3.698;2023-03-01T03:43:05;1.60;99.90
70074;DHT22;57445;51.058;3.698;2023-03-01T03:45:35;1.80;99.90
70074;DHT22;57445;51.058;3.698;2023-03-01T03:48:07;1.80;99.90
70074;DHT22;57445;51.058;3.698;2023-03-01T03:50:40;1.80;99.90
70074;DHT22;57445;51.058;3.698;2023-03-01T03:53:12;1.80;99.90
70074;DHT22;57445;51.058;3.698;2023-03-01T03:55:41;1.80;99.90
70074;DHT22;57445;51.058;3.698;2023-03-01T03:58:12;1.90;99.90
70074;DHT22;57445;51.058;3.698;2023-03-01T04:00:47;1.90;99.90
70074;DHT22;57445;51.058;3.698;2023-03-01T04:03:15;2.10;99.90
70074;DHT22;57445;51.058;3.698;2023-03-01T04:05:45;1.80;99.90
70074;DHT22;57445;51.058;3.698;2023-03-01T04:08:12;1.90;99.90
70074;DHT22;57445;51.058;3.698;2023-03-01T04:10:45;1.80;99.90
70074;DHT22;57445;51.058;3.698;2023-03-01T04:13:19;1.80;99.90
70074;DHT22;57445;51.058;3.698;2023-03-01T04:15:53;1.70;99.90
70074;DHT22;57445;51.058;3.698;2023-03-01T04:18:21;1.80;99.90
70074;DHT22;57445;51.058;3.698;2023-03-01T04:20:53;1.80;99.90
70074;DHT22;57445;51.058;3.698;2023-03-01T04:23:26;1.80;99.90
70074;DHT22;57445;51.058;3.698;2023-03-01T04:25:58;1.70;99.90
70074;DHT22;57445;51.058;3.698;2023-03-01T04:28:27;1.80;99.90
70074;DHT22;57445;51.058;3.698;2023-03-01T04:31:02;2.00;99.90
70074;DHT22;57445;51.058;3.698;2023-03-01T04:33:46;2.10;99.90
70074;DHT22;57445;51.058;3.698;2023-03-01T04:36:18;2.30;99.90
70074;DHT22;57445;51.058;3.698;2023-03-01T04:38:50;2.10;99.90
70074;DHT22;57445;51.058;3.698;2023-03-01T04:41:18;1.90;99.90
70074;DHT22;57445;51.058;3.698;2023-03-01T04:43:51;1.80;99.90
70074;DHT22;57445;51.058;3.698;2023-03-01T04:46:25;1.60;99.90
70074;DHT22;57445;51.058;3.698;2023-03-01T04:48:52;1.70;99.90
70074;DHT22;57445;51.058;3.698;2023-03-01T04:51:24;1.70;99.90
70074;DHT22;57445;51.058;3.698;2023-03-01T04:53:57;1.80;99.90
70074;DHT22;57445;51.058;3.698;2023-03-01T04:56:24;1.70;99.90
70074;DHT22;57445;51.058;3.698;2023-03-01T04:58:56;1.70;99.80
70074;DHT22;57445;51.058;3.698;2023-03-01T05:01:25;1.70;99.60
70074;DHT22;57445;51.058;3.698;2023-03-01T05:03:57;1.60;99.90
70074;DHT22;57445;51.058;3.698;2023-03-01T05:06:28;1.60;99.90
70074;DHT22;57445;51.058;3.698;2023-03-01T05:08:56;1.50;99.90
70074;DHT22;57445;51.058;3.698;2023-03-01T05:11:24;1.60;99.90
70074;DHT22;57445;51.058;3.698;2023-03-01T05:13:56;1.50;99.90
70074;DHT22;57445;51.058;3.698;2023-03-01T05:16:29;1.50;99.90
70074;DHT22;57445;51.058;3.698;2023-03-01T05:18:58;1.50;99.90
70074;DHT22;57445;51.058;3.698;2023-03-01T05:21:30;1.70;99.90
70074;DHT22;57445;51.058;3.698;2023-03-01T05:24:02;1.80;99.30
70074;DHT22;57445;51.058;3.698;2023-03-01T05:26:34;1.80;99.20
70074;DHT22;57445;51.058;3.698;2023-03-01T05:29:06;1.70;99.10
70074;DHT22;57445;51.058;3.698;2023-03-01T05:31:37;1.70;99.10
70074;DHT22;57445;51.058;3.698;2023-03-01T05:34:09;1.70;99.30
70074;DHT22;57445;51.058;3.698;2023-03-01T05:36:38;1.80;99.20
70074;DHT22;57445;51.058;3.698;2023-03-01T05:39:06;1.80;99.10
70074;DHT22;57445;51.058;3.698;2023-03-01T05:41:33;1.90;98.90
70074;DHT22;57445;51.058;3.698;2023-03-01T05:44:05;1.80;98.90
70074;DHT22;57445;51.058;3.698;2023-03-01T05:46:33;2.10;99.20
70074;DHT22;57445;51.058;3.698;2023-03-01T05:49:06;1.70;99.20
70074;DHT22;57445;51.058;3.698;2023-03-01T05:51:34;1.80;99.20
70074;DHT22;57445;51.058;3.698;2023-03-01T05:54:02;1.80;98.90
70074;DHT22;57445;51.058;3.698;2023-03-01T05:56:36;1.90;98.80
70074;DHT22;57445;51.058;3.698;2023-03-01T05:59:04;1.80;98.80
70074;DHT22;57445;51.058;3.698;2023-03-01T06:01:32;1.80;98.90
70074;DHT22;57445;51.058;3.698;2023-03-01T06:04:04;1.80;98.80
70074;DHT22;57445;51.058;3.698;2023-03-01T06:06:37;1.80;99.00
70074;DHT22;57445;51.058;3.698;2023-03-01T06:09:05;1.80;98.80
70074;DHT22;57445;51.058;3.698;2023-03-01T06:11:35;1.80;98.90
70074;DHT22;57445;51.058;3.698;2023-03-01T06:14:03;1.70;98.90
70074;DHT22;57445;51.058;3.698;2023-03-01T06:16:36;1.70;99.00
70074;DHT22;57445;51.058;3.698;2023-03-01T06:19:08;1.70;99.00
70074;DHT22;57445;51.058;3.698;2023-03-01T06:21:37;1.80;98.50
70074;DHT22;57445;51.058;3.698;2023-03-01T06:24:09;1.80;98.40
70074;DHT22;57445;51.058;3.698;2023-03-01T06:26:43;2.00;98.30
70074;DHT22;57445;51.058;3.698;2023-03-01T06:29:15;2.00;97.80
70074;DHT22;57445;51.058;3.698;2023-03-01T06:31:50;2.00;97.50
70074;DHT22;57445;51.058;3.698;2023-03-01T06:34:22;1.90;97.50
70074;DHT22;57445;51.058;3.698;2023-03-01T06:36:55;2.00;97.30
70074;DHT22;57445;51.058;3.698;2023-03-01T06:39:22;2.20;97.30
70074;DHT22;57445;51.058;3.698;2023-03-01T06:41:54;1.90;97.50
70074;DHT22;57445;51.058;3.698;2023-03-01T06:44:22;1.90;97.20
70074;DHT22;57445;51.058;3.698;2023-03-01T06:46:49;1.90;97.40
70074;DHT22;57445;51.058;3.698;2023-03-01T06:49:21;1.80;97.80
70074;DHT22;57445;51.058;3.698;2023-03-01T06:51:53;1.80;97.80
70074;DHT22;57445;51.058;3.698;2023-03-01T06:54:27;1.90;98.10
70074;DHT22;57445;51.058;3.698;2023-03-01T06:56:59;1.90;97.40
70074;DHT22;57445;51.058;3.698;2023-03-01T06:59:31;1.90;97.10
70074;DHT22;57445;51.058;3.698;2023-03-01T07:02:02;1.90;97.30
70074;DHT22;57445;51.058;3.698;2023-03-01T07:04:34;1.80;97.30
70074;DHT22;57445;51.058;3.698;2023-03-01T07:07:02;1.70;97.50
70074;DHT22;57445;51.058;3.698;2023-03-01T07:09:35;1.80;97.50
70074;DHT22;57445;51.058;3.698;2023-03-01T07:12:03;1.90;97.20
70074;DHT22;57445;51.058;3.698;2023-03-01T07:14:30;1.80;96.90
70074;DHT22;57445;51.058;3.698;2023-03-01T07:17:02;1.80;97.00
70074;DHT22;57445;51.058;3.698;2023-03-01T07:19:34;1.90;97.00
70074;DHT22;57445;51.058;3.698;2023-03-01T07:22:06;2.00;96.40
70074;DHT22;57445;51.058;3.698;2023-03-01T07:24:41;2.10;96.30
70074;DHT22;57445;51.058;3.698;2023-03-01T07:27:09;2.10;95.60
70074;DHT22;57445;51.058;3.698;2023-03-01T07:29:37;2.20;95.50
70074;DHT22;57445;51.058;3.698;2023-03-01T07:32:09;2.10;95.50
70074;DHT22;57445;51.058;3.698;2023-03-01T07:34:41;2.10;95.40
70074;DHT22;57445;51.058;3.698;2023-03-01T07:37:08;2.10;95.50
70074;DHT22;57445;51.058;3.698;2023-03-01T07:39:36;2.20;95.40
70074;DHT22;57445;51.058;3.698;2023-03-01T07:42:09;2.40;94.90
70074;DHT22;57445;51.058;3.698;2023-03-01T07:44:37;2.40;94.80
70074;DHT22;57445;51.058;3.698;2023-03-01T07:47:04;2.40;94.80
70074;DHT22;57445;51.058;3.698;2023-03-01T07:49:37;2.50;94.30
70074;DHT22;57445;51.058;3.698;2023-03-01T07:52:04;2.50;94.20
70074;DHT22;57445;51.058;3.698;2023-03-01T07:54:36;2.60;94.30
70074;DHT22;57445;51.058;3.698;2023-03-01T07:57:04;2.70;93.70
70074;DHT22;57445;51.058;3.698;2023-03-01T07:59:37;2.80;93.80
70074;DHT22;57445;51.058;3.698;2023-03-01T08:02:09;3.00;93.30
70074;DHT22;57445;51.058;3.698;2023-03-01T08:04:41;3.00;93.20
70074;DHT22;57445;51.058;3.698;2023-03-01T08:07:13;2.80;93.10
70074;DHT22;57445;51.058;3.698;2023-03-01T08:09:45;2.90;93.20
70074;DHT22;57445;51.058;3.698;2023-03-01T08:12:13;3.30;92.90
70074;DHT22;57445;51.058;3.698;2023-03-01T08:14:48;3.00;92.80
70074;DHT22;57445;51.058;3.698;2023-03-01T08:17:16;2.90;92.50
70074;DHT22;57445;51.058;3.698;2023-03-01T08:19:48;3.00;92.70
70074;DHT22;57445;51.058;3.698;2023-03-01T08:22:15;3.00;92.00
70074;DHT22;57445;51.058;3.698;2023-03-01T08:24:43;3.00;92.30
70074;DHT22;57445;51.058;3.698;2023-03-01T08:27:10;3.20;92.20
70074;DHT22;57445;51.058;3.698;2023-03-01T08:29:43;3.40;91.70
70074;DHT22;57445;51.058;3.698;2023-03-01T08:32:12;3.50;90.90
70074;DHT22;57445;51.058;3.698;2023-03-01T08:34:40;3.70;91.10
70074;DHT22;57445;51.058;3.698;2023-03-01T08:37:12;3.90;90.60
70074;DHT22;57445;51.058;3.698;2023-03-01T08:39:40;3.90;90.50
70074;DHT22;57445;51.058;3.698;2023-03-01T08:42:12;3.80;90.30
70074;DHT22;57445;51.058;3.698;2023-03-01T08:44:44;3.80;90.70
70074;DHT22;57445;51.058;3.698;2023-03-01T08:47:13;3.90;90.30
70074;DHT22;57445;51.058;3.698;2023-03-01T08:49:45;3.80;90.10
70074;DHT22;57445;51.058;3.698;2023-03-01T08:52:13;3.80;90.30
70074;DHT22;57445;51.058;3.698;2023-03-01T08:54:45;4.20;90.00
70074;DHT22;57445;51.058;3.698;2023-03-01T08:57:14;4.10;89.40
70074;DHT22;57445;51.058;3.698;2023-03-01T08:59:41;3.80;90.00
70074;DHT22;57445;51.058;3.698;2023-03-01T09:02:17;3.80;90.20
70074;DHT22;57445;51.058;3.698;2023-03-01T09:04:49;4.10;90.00
70074;DHT22;57445;51.058;3.698;2023-03-01T09:07:17;4.40;88.40
70074;DHT22;57445;51.058;3.698;2023-03-01T09:09:44;4.30;88.30
70074;DHT22;57445;51.058;3.698;2023-03-01T09:12:12;4.20;88.30
70074;DHT22;57445;51.058;3.698;2023-03-01T09:14:44;4.30;88.90
70074;DHT22;57445;51.058;3.698;2023-03-01T09:17:11;4.10;88.70
70074;DHT22;57445;51.058;3.698;2023-03-01T09:19:40;4.50;88.40
70074;DHT22;57445;51.058;3.698;2023-03-01T09:22:12;4.80;87.50
70074;DHT22;57445;51.058;3.698;2023-03-01T09:24:39;4.70;87.70
70074;DHT22;57445;51.058;3.698;2023-03-01T09:27:11;5.00;87.20
70074;DHT22;57445;51.058;3.698;2023-03-01T09:29:45;5.20;85.40
70074;DHT22;57445;51.058;3.698;2023-03-01T09:32:12;5.10;85.50
70074;DHT22;57445;51.058;3.698;2023-03-01T09:34:44;4.90;86.30
70074;DHT22;57445;51.058;3.698;2023-03-01T09:37:35;4.90;85.20
70074;DHT22;57445;51.058;3.698;2023-03-01T09:40:03;4.90;85.10
70074;DHT22;57445;51.058;3.698;2023-03-01T09:42:32;4.60;86.30
70074;DHT22;57445;51.058;3.698;2023-03-01T09:45:01;4.60;86.60
70074;DHT22;57445;51.058;3.698;2023-03-01T09:47:31;5.30;86.20
70074;DHT22;57445;51.058;3.698;2023-03-01T09:50:02;5.00;84.60
70074;DHT22;57445;51.058;3.698;2023-03-01T09:52:36;5.10;84.60
70074;DHT22;57445;51.058;3.698;2023-03-01T09:55:11;4.90;84.20
70074;DHT22;57445;51.058;3.698;2023-03-01T09:57:41;4.70;85.60
70074;DHT22;57445;51.058;3.698;2023-03-01T10:00:13;4.60;85.60
70074;DHT22;57445;51.058;3.698;2023-03-01T10:02:47;4.80;85.00
70074;DHT22;57445;51.058;3.698;2023-03-01T10:10:58;5.20;83.60
70074;DHT22;57445;51.058;3.698;2023-03-01T10:13:33;5.00;83.60
70074;DHT22;57445;51.058;3.698;2023-03-01T10:16:10;5.10;83.10
70074;DHT22;57445;51.058;3.698;2023-03-01T10:18:43;4.90;83.20
70074;DHT22;57445;51.058;3.698;2023-03-01T10:21:18;4.90;83.30
70074;DHT22;57445;51.058;3.698;2023-03-01T10:23:51;4.90;83.30
70074;DHT22;57445;51.058;3.698;2023-03-01T10:29:11;5.50;81.30
70074;DHT22;57445;51.058;3.698;2023-03-01T10:31:40;5.70;80.00
70074;DHT22;57445;51.058;3.698;2023-03-01T10:34:14;5.30;79.60
70074;DHT22;57445;51.058;3.698;2023-03-01T10:36:48;5.40;79.30
70074;DHT22;57445;51.058;3.698;2023-03-01T10:39:16;5.50;77.50
70074;DHT22;57445;51.058;3.698;2023-03-01T10:41:52;5.50;77.60
70074;DHT22;57445;51.058;3.698;2023-03-01T10:47:13;5.90;76.40
70074;DHT22;57445;51.058;3.698;2023-03-01T10:49:52;6.20;74.80
70074;DHT22;57445;51.058;3.698;2023-03-01T10:52:26;6.40;73.50
70074;DHT22;57445;51.058;3.698;2023-03-01T10:54:54;5.90;75.70
70074;DHT22;57445;51.058;3.698;2023-03-01T10:57:28;5.90;75.80
70074;DHT22;57445;51.058;3.698;2023-03-01T11:00:10;6.10;76.60
70074;DHT22;57445;51.058;3.698;2023-03-01T11:02:45;5.90;76.30
70074;DHT22;57445;51.058;3.698;2023-03-01T11:05:20;6.20;75.00
70074;DHT22;57445;51.058;3.698;2023-03-01T11:07:50;6.60;74.00
70074;DHT22;57445;51.058;3.698;2023-03-01T11:10:20;6.40;74.20
70074;DHT22;57445;51.058;3.698;2023-03-01T11:12:53;6.40;74.40
70074;DHT22;57445;51.058;3.698;2023-03-01T11:15:36;6.30;74.20
70074;DHT22;57445;51.058;3.698;2023-03-01T11:18:19;6.30;74.40
70074;DHT22;57445;51.058;3.698;2023-03-01T11:20:47;6.40;73.60
70074;DHT22;57445;51.058;3.698;2023-03-01T11:23:16;6.50;73.70
70074;DHT22;57445;51.058;3.698;2023-03-01T11:25:44;7.00;72.20
70074;DHT22;57445;51.058;3.698;2023-03-01T11:28:18;7.00;71.90
70074;DHT22;57445;51.058;3.698;2023-03-01T11:30:51;7.40;70.80
70074;DHT22;57445;51.058;3.698;2023-03-01T11:33:24;7.10;70.50
70074;DHT22;57445;51.058;3.698;2023-03-01T11:36:01;7.00;69.70
70074;DHT22;57445;51.058;3.698;2023-03-01T11:38:30;6.70;70.50
70074;DHT22;57445;51.058;3.698;2023-03-01T11:41:01;6.60;71.10
70074;DHT22;57445;51.058;3.698;2023-03-01T11:43:35;6.80;71.00
70074;DHT22;57445;51.058;3.698;2023-03-01T11:46:14;6.90;71.30
70074;DHT22;57445;51.058;3.698;2023-03-01T11:48:52;7.00;69.70
70074;DHT22;57445;51.058;3.698;2023-03-01T11:51:25;7.10;68.90
70074;DHT22;57445;51.058;3.698;2023-03-01T11:56:49;6.70;70.50
70074;DHT22;57445;51.058;3.698;2023-03-01T11:59:39;6.70;71.00
70074;DHT22;57445;51.058;3.698;2023-03-01T12:02:17;6.70;71.50
70074;DHT22;57445;51.058;3.698;2023-03-01T12:04:57;7.10;70.70
70074;DHT22;57445;51.058;3.698;2023-03-01T12:07:36;7.60;69.30
70074;DHT22;57445;51.058;3.698;2023-03-01T12:10:14;7.80;68.00
70074;DHT22;57445;51.058;3.698;2023-03-01T12:12:56;7.80;68.40
70074;DHT22;57445;51.058;3.698;2023-03-01T12:15:33;8.10;67.20
70074;DHT22;57445;51.058;3.698;2023-03-01T12:18:16;7.40;68.60
70074;DHT22;57445;51.058;3.698;2023-03-01T12:20:56;7.10;69.70
70074;DHT22;57445;51.058;3.698;2023-03-01T12:23:34;7.40;69.00
70074;DHT22;57445;51.058;3.698;2023-03-01T12:26:14;7.40;68.60
70074;DHT22;57445;51.058;3.698;2023-03-01T12:31:32;7.10;68.90
70074;DHT22;57445;51.058;3.698;2023-03-01T12:34:02;7.10;69.20
70074;DHT22;57445;51.058;3.698;2023-03-01T12:36:40;7.20;69.30
70074;DHT22;57445;51.058;3.698;2023-03-01T12:39:15;7.40;68.20
70074;DHT22;57445;51.058;3.698;2023-03-01T12:41:54;7.10;69.50
70074;DHT22;57445;51.058;3.698;2023-03-01T12:44:29;7.50;69.40
70074;DHT22;57445;51.058;3.698;2023-03-01T12:47:10;7.70;67.70
70074;DHT22;57445;51.058;3.698;2023-03-01T12:49:44;8.10;65.90
70074;DHT22;57445;51.058;3.698;2023-03-01T12:52:16;8.40;64.80
70074;DHT22;57445;51.058;3.698;2023-03-01T12:54:50;8.00;66.20
70074;DHT22;57445;51.058;3.698;2023-03-01T12:57:21;8.00;66.00
70074;DHT22;57445;51.058;3.698;2023-03-01T13:00:00;7.50;67.70
70074;DHT22;57445;51.058;3.698;2023-03-01T13:02:39;7.30;68.20
70074;DHT22;57445;51.058;3.698;2023-03-01T13:05:19;7.30;68.50
70074;DHT22;57445;51.058;3.698;2023-03-01T13:07:58;7.10;68.70
70074;DHT22;57445;51.058;3.698;2023-03-01T13:10:34;7.00;68.30
70074;DHT22;57445;51.058;3.698;2023-03-01T13:13:14;7.20;67.60
70074;DHT22;57445;51.058;3.698;2023-03-01T13:15:50;7.40;66.90
70074;DHT22;57445;51.058;3.698;2023-03-01T13:18:29;7.70;67.10
70074;DHT22;57445;51.058;3.698;2023-03-01T13:20:58;8.00;66.20
70074;DHT22;57445;51.058;3.698;2023-03-01T13:23:29;7.90;66.50
70074;DHT22;57445;51.058;3.698;2023-03-01T13:26:03;8.30;66.00
70074;DHT22;57445;51.058;3.698;2023-03-01T13:28:41;8.20;65.70
70074;DHT22;57445;51.058;3.698;2023-03-01T13:31:09;8.20;65.80
70074;DHT22;57445;51.058;3.698;2023-03-01T13:33:42;8.20;65.70
70074;DHT22;57445;51.058;3.698;2023-03-01T13:39:25;7.80;67.60
70074;DHT22;57445;51.058;3.698;2023-03-01T13:41:58;7.80;67.70
70074;DHT22;57445;51.058;3.698;2023-03-01T13:44:30;8.00;67.00
70074;DHT22;57445;51.058;3.698;2023-03-01T13:47:00;8.00;67.10
70074;DHT22;57445;51.058;3.698;2023-03-01T13:49:33;8.20;66.00
70074;DHT22;57445;51.058;3.698;2023-03-01T13:52:13;8.10;66.20
70074;DHT22;57445;51.058;3.698;2023-03-01T13:54:54;8.20;66.50
70074;DHT22;57445;51.058;3.698;2023-03-01T13:57:30;8.30;66.10
70074;DHT22;57445;51.058;3.698;2023-03-01T14:00:04;8.00;66.70
70074;DHT22;57445;51.058;3.698;2023-03-01T14:02:32;7.70;67.50
70074;DHT22;57445;51.058;3.698;2023-03-01T14:05:02;7.50;68.60
70074;DHT22;57445;51.058;3.698;2023-03-01T14:07:29;7.60;68.60
70074;DHT22;57445;51.058;3.698;2023-03-01T14:10:03;7.80;68.10
70074;DHT22;57445;51.058;3.698;2023-03-01T14:12:36;7.80;68.40
70074;DHT22;57445;51.058;3.698;2023-03-01T14:15:06;8.00;67.30
70074;DHT22;57445;51.058;3.698;2023-03-01T14:17:40;8.30;67.20
70074;DHT22;57445;51.058;3.698;2023-03-01T14:20:10;8.20;66.70
70074;DHT22;57445;51.058;3.698;2023-03-01T14:22:39;7.90;67.10
70074;DHT22;57445;51.058;3.698;2023-03-01T14:25:19;7.90;68.10
70074;DHT22;57445;51.058;3.698;2023-03-01T14:27:51;7.80;68.10
70074;DHT22;57445;51.058;3.698;2023-03-01T14:30:20;7.60;69.10
70074;DHT22;57445;51.058;3.698;2023-03-01T14:32:51;7.50;69.00
70074;DHT22;57445;51.058;3.698;2023-03-01T14:35:24;7.50;69.10
70074;DHT22;57445;51.058;3.698;2023-03-01T14:37:56;7.60;68.90
70074;DHT22;57445;51.058;3.698;2023-03-01T14:40:31;7.80;69.00
70074;DHT22;57445;51.058;3.698;2023-03-01T14:43:08;7.90;68.50
70074;DHT22;57445;51.058;3.698;2023-03-01T14:45:42;7.90;67.10
70074;DHT22;57445;51.058;3.698;2023-03-01T14:48:13;7.70;68.20
70074;DHT22;57445;51.058;3.698;2023-03-01T14:50:46;7.80;67.80
70074;DHT22;57445;51.058;3.698;2023-03-01T14:53:16;7.90;67.90
70074;DHT22;57445;51.058;3.698;2023-03-01T14:55:51;8.10;67.50
70074;DHT22;57445;51.058;3.698;2023-03-01T14:58:24;7.90;67.30
70074;DHT22;57445;51.058;3.698;2023-03-01T15:00:53;7.90;67.40
70074;DHT22;57445;51.058;3.698;2023-03-01T15:03:25;7.70;68.30
70074;DHT22;57445;51.058;3.698;2023-03-01T15:05:53;7.80;68.20
70074;DHT22;57445;51.058;3.698;2023-03-01T15:08:25;7.90;68.10
70074;DHT22;57445;51.058;3.698;2023-03-01T15:11:05;7.80;68.10
70074;DHT22;57445;51.058;3.698;2023-03-01T15:13:48;7.90;67.10
70074;DHT22;57445;51.058;3.698;2023-03-01T15:16:21;7.50;68.00
70074;DHT22;57445;51.058;3.698;2023-03-01T15:18:54;7.40;69.10
70074;DHT22;57445;51.058;3.698;2023-03-01T15:21:29;7.50;68.80
70074;DHT22;57445;51.058;3.698;2023-03-01T15:24:03;7.50;69.00
70074;DHT22;57445;51.058;3.698;2023-03-01T15:26:39;7.50;69.10
70074;DHT22;57445;51.058;3.698;2023-03-01T15:29:14;7.60;67.90
70074;DHT22;57445;51.058;3.698;2023-03-01T15:31:43;7.50;68.10
70074;DHT22;57445;51.058;3.698;2023-03-01T15:34:21;7.30;68.60
70074;DHT22;57445;51.058;3.698;2023-03-01T15:36:54;7.30;68.90
70074;DHT22;57445;51.058;3.698;2023-03-01T15:39:31;7.40;68.60
70074;DHT22;57445;51.058;3.698;2023-03-01T15:42:07;7.40;68.50
70074;DHT22;57445;51.058;3.698;2023-03-01T15:44:35;7.40;68.10
70074;DHT22;57445;51.058;3.698;2023-03-01T15:47:08;7.60;68.20
70074;DHT22;57445;51.058;3.698;2023-03-01T15:49:53;7.70;67.60
70074;DHT22;57445;51.058;3.698;2023-03-01T15:52:22;7.90;67.20
70074;DHT22;57445;51.058;3.698;2023-03-01T15:55:00;7.80;66.90
70074;DHT22;57445;51.058;3.698;2023-03-01T15:57:34;7.70;66.90
70074;DHT22;57445;51.058;3.698;2023-03-01T16:00:01;7.50;68.00
70074;DHT22;57445;51.058;3.698;2023-03-01T16:02:42;7.50;68.30
70074;DHT22;57445;51.058;3.698;2023-03-01T16:05:13;7.50;68.20
70074;DHT22;57445;51.058;3.698;2023-03-01T16:07:43;7.50;68.50
70074;DHT22;57445;51.058;3.698;2023-03-01T16:10:10;7.20;69.10
70074;DHT22;57445;51.058;3.698;2023-03-01T16:12:44;7.20;69.50
70074;DHT22;57445;51.058;3.698;2023-03-01T16:15:18;7.00;69.60
70074;DHT22;57445;51.058;3.698;2023-03-01T16:17:51;7.20;69.70
70074;DHT22;57445;51.058;3.698;2023-03-01T16:20:24;7.10;69.70
70074;DHT22;57445;51.058;3.698;2023-03-01T16:22:57;7.10;69.40
70074;DHT22;57445;51.058;3.698;2023-03-01T16:25:30;7.10;69.60
70074;DHT22;57445;51.058;3.698;2023-03-01T16:28:00;7.10;69.70
70074;DHT22;57445;51.058;3.698;2023-03-01T16:30:30;7.10;69.40
70074;DHT22;57445;51.058;3.698;2023-03-01T16:32:59;7.10;69.70
70074;DHT22;57445;51.058;3.698;2023-03-01T16:35:31;7.10;69.90